Overview Statistics Trail Chart Weather Telemetry Raw packets
 

This is the latest recevied weather packets stored in our database for station/object KO4YAW. If no packets are shown the sender has not sent any weather packets the latest 10 day(s).

<< 26 27 28 29 30 31 32 >>
Time Temp. Humidity Pressure Rain* Wind** Luminosity Snow
1788055385 24.44° C 42% 1018.5 hPa 0 mm - 0 W/m² -
1788054485 24.44° C 44% 1018.4 hPa 0 mm - 0 W/m² -
1788053585 24.44° C 44% 1018.3 hPa 0 mm - 2 W/m² -
1788052685 25° C 45% 1018.4 hPa 0 mm - 9 W/m² -
1788051785 25.56° C 42% 1018.2 hPa 0 mm - 36 W/m² -
1788050885 26.67° C 40% 1018.4 hPa 0 mm - 42 W/m² -
1788049985 26.67° C 39% 1018.3 hPa 0 mm - 147 W/m² -
1788049085 25° C 42% 1017.9 hPa 0 mm - 121 W/m² -
1788048185 24.44° C 44% 1017.3 hPa 0 mm - 185 W/m² -
1788047285 24.44° C 47% 1017.5 hPa 0 mm - 72 W/m² -
1788046385 23.33° C 49% 1018.4 hPa 0 mm - 79 W/m² -
1788045485 26.11° C 46% 1019.1 hPa 0 mm - 33 W/m² -
1788044585 28.33° C 31% 1017.8 hPa 0 mm - 21 W/m² -
1788043685 28.33° C 30% 1017.3 hPa 0 mm - 110 W/m² -
1788042785 29.44° C 30% 1017.5 hPa 0 mm - 147 W/m² -
1788041885 32.22° C 21% 1017.1 hPa 0 mm - 96 W/m² -
1788040985 33.89° C 20% 1016.9 hPa 0 mm - 531 W/m² -
1788040085 32.78° C 22% 1016.9 hPa 0 mm - 275 W/m² -
1788039185 32.78° C 21% 1017 hPa 0 mm - 332 W/m² -
1788038285 32.22° C 22% 1017.2 hPa 0 mm - 734 W/m² -
1788037385 31.67° C 23% 1017.5 hPa 0 mm - 327 W/m² -
1788036485 31.67° C 23% 1017.6 hPa 0 mm - 377 W/m² -
1788035585 31.67° C 24% 1017.7 hPa 0 mm - 438 W/m² -
1788034685 31.11° C 25% 1018 hPa 0 mm - 292 W/m² -
1788033785 31.67° C 25% 1018 hPa 0 mm - 323 W/m² -

* Rain since midnight (hover to see other rain measurements)
** Current wind speed in m/s (hover to see current wind gust speed)